Mount Washington, Canada
Current Conditions -  °F | °C
As of 12:00 PM on Thursday 29 Jan 2015 (Local Time) from CYBL Reporting Station
Broken Clouds Broken Clouds  
Wind Chill: 46°   Ceiling: 6300
Heat Index: 46°   Visibility: 15mi
Dew Point: 43°   Wind: 0mph
Humidity: 87%   Direction: NA
Pressure: 30.39"   Gusts: NA
Location:  49.74°N, 125.26°W
Report Text: CYBL 292000Z 00000KT 15SM FEW008 BKN063 08/06 A3039 RMK CF2SC5 SLP296
Loading
Personal Weather Stations






























Interactive Weather Map New forecast layout! Learn more

10-Day Weather Forecast

Advertisements
Track Severe Weather on mobile